Time,TemperatureF,DewpointF,PressureIn,WindDirection,WindDirectionDegrees,WindSpeedMPH,WindSpeedGustMPH,Humidity,HourlyPrecipIn,Conditions,Clouds,dailyrainin,SoftwareType,DateUTC
2013-02-23 00:01:00,57.0,56.7,29.87,NE,51,3.0,5.0,99,0.00,,,0.00,Wunderground v.1.15,2013-02-23 06:01:00,
2013-02-23 00:06:00,57.0,56.7,29.87,NNE,25,2.0,5.0,99,0.00,,,0.00,Wunderground v.1.15,2013-02-23 06:06:00,
2013-02-23 00:12:00,56.9,56.6,29.87,North,8,2.0,5.0,99,0.00,,,0.00,Wunderground v.1.15,2013-02-23 06:12:00,
2013-02-23 00:18:00,56.9,56.6,29.86,NE,34,1.0,5.0,99,0.00,,,0.00,Wunderground v.1.15,2013-02-23 06:18:00,
2013-02-23 00:23:00,56.9,56.6,29.85,NE,44,1.0,3.0,99,0.00,,,0.00,Wunderground v.1.15,2013-02-23 06:23:00,
2013-02-23 00:29:00,57.0,56.7,29.86,NW,321,5.0,5.0,99,0.00,,,0.00,Wunderground v.1.15,2013-02-23 06:29:00,
2013-02-23 00:35:00,57.0,56.7,29.85,NW,321,2.0,4.0,99,0.00,,,0.00,Wunderground v.1.15,2013-02-23 06:35:00,
2013-02-23 00:41:00,57.1,56.8,29.85,North,352,7.0,7.0,99,0.00,,,0.00,Wunderground v.1.15,2013-02-23 06:41:00,
2013-02-23 00:47:00,57.1,56.8,29.86,WNW,291,4.0,7.0,99,0.00,,,0.00,Wunderground v.1.15,2013-02-23 06:47:00,
2013-02-23 00:53:00,57.1,56.8,29.87,NW,321,4.0,6.0,99,0.00,,,0.00,Wunderground v.1.15,2013-02-23 06:53:00,
2013-02-23 00:59:00,57.0,56.7,29.87,NW,314,5.0,8.0,99,0.00,,,0.00,Wunderground v.1.15,2013-02-23 06:59:00,
2013-02-23 01:05:00,56.8,56.5,29.87,NNW,334,8.0,8.0,99,0.00,,,0.00,Wunderground v.1.15,2013-02-23 07:05:00,
2013-02-23 01:10:00,56.7,56.4,29.87,NW,322,5.0,6.0,99,0.00,,,0.00,Wunderground v.1.15,2013-02-23 07:10:00,
2013-02-23 01:16:00,56.5,56.2,29.87,NNW,328,10.0,10.0,99,0.00,,,0.00,Wunderground v.1.15,2013-02-23 07:16:00,
2013-02-23 01:22:00,56.4,56.1,29.87,NNW,330,4.0,7.0,99,0.00,,,0.01,Wunderground v.1.15,2013-02-23 07:22:00,
2013-02-23 01:28:00,56.2,55.9,29.86,NNE,20,6.0,7.0,99,0.00,,,0.01,Wunderground v.1.15,2013-02-23 07:28:00,
2013-02-23 01:34:00,55.9,55.6,29.85,NW,326,3.0,11.0,99,0.00,,,0.01,Wunderground v.1.15,2013-02-23 07:34:00,
2013-02-23 01:40:00,55.7,55.4,29.85,North,356,6.0,6.0,99,0.00,,,0.01,Wunderground v.1.15,2013-02-23 07:40:00,
2013-02-23 01:46:00,55.6,55.3,29.85,North,352,5.0,7.0,99,0.00,,,0.01,Wunderground v.1.15,2013-02-23 07:46:00,
2013-02-23 01:52:00,55.5,55.2,29.86,NNE,13,4.0,4.0,99,0.00,,,0.01,Wunderground v.1.15,2013-02-23 07:52:00,
2013-02-23 01:57:00,55.5,55.2,29.85,NE,39,3.0,5.0,99,0.00,,,0.01,Wunderground v.1.15,2013-02-23 07:57:00,
2013-02-23 02:02:00,55.5,55.2,29.84,NNE,32,4.0,5.0,99,0.00,,,0.01,Wunderground v.1.15,2013-02-23 08:02:00,
2013-02-23 02:07:00,55.5,55.2,29.84,East,82,3.0,8.0,99,0.00,,,0.01,Wunderground v.1.15,2013-02-23 08:07:00,
2013-02-23 02:12:00,55.6,55.3,29.84,NNW,348,4.0,7.0,99,0.00,,,0.01,Wunderground v.1.15,2013-02-23 08:12:00,
2013-02-23 02:17:00,55.7,55.4,29.85,North,352,2.0,10.0,99,0.00,,,0.01,Wunderground v.1.15,2013-02-23 08:17:00,
2013-02-23 02:22:00,55.8,55.5,29.85,NE,44,5.0,5.0,99,0.00,,,0.01,Wunderground v.1.15,2013-02-23 08:22:00,
2013-02-23 02:27:00,55.8,55.5,29.84,NW,324,6.0,7.0,99,0.00,,,0.01,Wunderground v.1.15,2013-02-23 08:27:00,
2013-02-23 02:32:00,55.8,55.5,29.83,NNE,18,3.0,9.0,99,0.00,,,0.01,Wunderground v.1.15,2013-02-23 08:32:00,
2013-02-23 02:37:00,55.7,55.4,29.85,NW,318,5.0,10.0,99,2.43,,,0.13,Wunderground v.1.15,2013-02-23 08:37:00,
2013-02-23 02:42:00,55.6,55.3,29.87,NW,324,6.0,14.0,99,1.55,,,0.23,Wunderground v.1.15,2013-02-23 08:42:00,
2013-02-23 02:47:00,55.6,55.3,29.86,NNW,338,3.0,14.0,99,1.87,,,0.35,Wunderground v.1.15,2013-02-23 08:47:00,
2013-02-23 02:52:00,55.7,55.4,29.85,NE,44,3.0,6.0,99,0.61,,,0.41,Wunderground v.1.15,2013-02-23 08:52:00,
2013-02-23 02:57:00,55.7,55.4,29.85,NW,325,3.0,6.0,99,0.48,,,0.44,Wunderground v.1.15,2013-02-23 08:57:00,
2013-02-23 03:02:00,55.6,55.3,29.84,North,1,3.0,7.0,99,0.41,,,0.50,Wunderground v.1.15,2013-02-23 09:02:00,
2013-02-23 03:07:00,55.6,55.3,29.86,NW,309,2.0,7.0,99,0.23,,,0.52,Wunderground v.1.15,2013-02-23 09:07:00,
2013-02-23 03:12:00,55.7,55.4,29.87,NNW,333,6.0,8.0,99,0.34,,,0.55,Wunderground v.1.15,2013-02-23 09:12:00,
2013-02-23 03:17:00,55.7,55.4,29.85,North,8,4.0,9.0,99,1.82,,,0.67,Wunderground v.1.15,2013-02-23 09:17:00,
2013-02-23 03:22:00,55.7,55.4,29.85,North,6,3.0,11.0,99,0.23,,,0.70,Wunderground v.1.15,2013-02-23 09:22:00,
2013-02-23 03:27:00,55.7,55.4,29.85,North,350,5.0,13.0,99,0.16,,,0.71,Wunderground v.1.15,2013-02-23 09:27:00,
2013-02-23 03:32:00,55.8,55.8,29.86,North,8,4.0,8.0,100,0.07,,,0.71,Wunderground v.1.15,2013-02-23 09:32:00,
2013-02-23 03:37:00,55.8,55.8,29.85,NNW,347,6.0,8.0,100,0.51,,,0.74,Wunderground v.1.15,2013-02-23 09:37:00,
2013-02-23 03:42:00,55.8,55.8,29.86,NNW,338,3.0,9.0,100,0.16,,,0.75,Wunderground v.1.15,2013-02-23 09:42:00,
2013-02-23 03:47:00,55.8,55.8,29.85,North,3,3.0,9.0,100,0.07,,,0.75,Wunderground v.1.15,2013-02-23 09:47:00,
2013-02-23 03:52:00,55.8,55.8,29.84,NNW,335,4.0,8.0,100,0.07,,,0.76,Wunderground v.1.15,2013-02-23 09:52:00,
2013-02-23 03:57:00,55.8,55.8,29.85,NNE,18,3.0,13.0,100,0.06,,,0.76,Wunderground v.1.15,2013-02-23 09:57:00,
2013-02-23 04:02:00,55.8,55.8,29.86,NNE,16,4.0,9.0,100,0.04,,,0.76,Wunderground v.1.15,2013-02-23 10:02:00,
2013-02-23 04:07:00,55.8,55.8,29.87,North,350,5.0,9.0,100,0.04,,,0.77,Wunderground v.1.15,2013-02-23 10:07:00,
2013-02-23 04:12:00,55.8,55.8,29.86,North,6,4.0,9.0,100,2.22,,,0.82,Wunderground v.1.15,2013-02-23 10:12:00,
2013-02-23 04:17:00,55.7,55.4,29.87,NW,324,6.0,9.0,99,0.38,,,0.88,Wunderground v.1.15,2013-02-23 10:17:00,
2013-02-23 04:22:00,55.6,55.3,29.86,NNE,24,4.0,7.0,99,1.19,,,0.97,Wunderground v.1.15,2013-02-23 10:22:00,
2013-02-23 04:27:00,55.6,55.3,29.87,NNE,25,6.0,9.0,99,0.26,,,1.01,Wunderground v.1.15,2013-02-23 10:27:00,
2013-02-23 04:32:00,55.6,55.3,29.86,NNW,336,5.0,10.0,99,0.10,,,1.01,Wunderground v.1.15,2013-02-23 10:32:00,
2013-02-23 04:37:00,55.6,55.3,29.85,North,349,8.0,17.0,99,0.52,,,1.03,Wunderground v.1.15,2013-02-23 10:37:00,
2013-02-23 04:42:00,55.5,55.2,29.86,NNE,23,7.0,11.0,99,0.24,,,1.06,Wunderground v.1.15,2013-02-23 10:42:00,
2013-02-23 04:47:00,55.5,55.2,29.86,NW,324,3.0,11.0,99,0.34,,,1.08,Wunderground v.1.15,2013-02-23 10:47:00,
2013-02-23 04:52:00,55.5,55.2,29.87,NW,321,7.0,12.0,99,0.11,,,1.08,Wunderground v.1.15,2013-02-23 10:52:00,
2013-02-23 04:57:00,55.5,55.2,29.88,NNE,29,2.0,12.0,99,0.09,,,1.09,Wunderground v.1.15,2013-02-23 10:57:00,
2013-02-23 05:02:00,55.5,55.2,29.86,NNW,342,2.0,7.0,99,0.07,,,1.10,Wunderground v.1.15,2013-02-23 11:02:00,
2013-02-23 05:07:00,55.4,55.1,29.86,NNE,18,4.0,12.0,99,0.07,,,1.10,Wunderground v.1.15,2013-02-23 11:07:00,
2013-02-23 05:12:00,55.4,55.1,29.88,NW,324,3.0,12.0,99,0.07,,,1.11,Wunderground v.1.15,2013-02-23 11:12:00,
2013-02-23 05:17:00,55.4,55.1,29.88,NW,320,4.0,12.0,99,0.07,,,1.11,Wunderground v.1.15,2013-02-23 11:17:00,
2013-02-23 05:22:00,55.4,55.1,29.88,NW,312,4.0,7.0,99,0.05,,,1.11,Wunderground v.1.15,2013-02-23 11:22:00,
2013-02-23 05:27:00,55.4,55.1,29.88,North,11,5.0,10.0,99,0.04,,,1.11,Wunderground v.1.15,2013-02-23 11:27:00,
2013-02-23 05:32:00,55.4,55.1,29.89,North,360,4.0,9.0,99,0.00,,,1.12,Wunderground v.1.15,2013-02-23 11:32:00,
2013-02-23 05:37:00,55.4,55.1,29.88,NNE,33,2.0,13.0,99,0.00,,,1.12,Wunderground v.1.15,2013-02-23 11:37:00,
2013-02-23 05:42:00,55.3,55.0,29.86,NNW,330,6.0,12.0,99,0.00,,,1.12,Wunderground v.1.15,2013-02-23 11:42:00,
2013-02-23 05:47:00,55.3,55.0,29.88,North,11,7.0,12.0,99,0.05,,,1.13,Wunderground v.1.15,2013-02-23 11:47:00,
2013-02-23 05:52:00,55.2,54.9,29.88,North,355,3.0,6.0,99,0.05,,,1.13,Wunderground v.1.15,2013-02-23 11:52:00,
2013-02-23 05:57:00,55.2,54.9,29.88,NNE,30,3.0,8.0,99,0.04,,,1.13,Wunderground v.1.15,2013-02-23 11:57:00,
2013-02-23 06:02:00,55.2,54.9,29.88,NNE,32,3.0,10.0,99,0.00,,,1.14,Wunderground v.1.15,2013-02-23 12:02:00,
2013-02-23 06:07:00,55.1,54.8,29.89,NNW,345,3.0,11.0,99,0.00,,,1.14,Wunderground v.1.15,2013-02-23 12:07:00,
2013-02-23 06:12:00,55.1,54.8,29.88,NNW,347,7.0,7.0,99,0.00,,,1.14,Wunderground v.1.15,2013-02-23 12:12:00,
2013-02-23 06:17:00,55.1,54.8,29.87,NE,47,3.0,8.0,99,0.00,,,1.14,Wunderground v.1.15,2013-02-23 12:17:00,
2013-02-23 06:22:00,55.1,54.8,29.87,ENE,61,3.0,7.0,99,0.00,,,1.14,Wunderground v.1.15,2013-02-23 12:22:00,
2013-02-23 06:27:00,55.0,54.7,29.87,North,356,2.0,8.0,99,0.00,,,1.14,Wunderground v.1.15,2013-02-23 12:27:00,
2013-02-23 06:32:00,55.0,54.4,29.86,NNE,25,2.0,8.0,98,0.00,,,1.14,Wunderground v.1.15,2013-02-23 12:32:00,
2013-02-23 06:38:00,55.0,54.4,29.87,NE,48,3.0,11.0,98,0.00,,,1.14,Wunderground v.1.15,2013-02-23 12:38:00,
2013-02-23 06:43:00,55.0,54.4,29.88,ENE,67,3.0,5.0,98,0.00,,,1.14,Wunderground v.1.15,2013-02-23 12:43:00,
2013-02-23 06:48:00,54.9,54.3,29.88,North,5,2.0,7.0,98,0.00,,,1.14,Wunderground v.1.15,2013-02-23 12:48:00,
2013-02-23 06:53:00,54.9,54.3,29.88,NNW,340,6.0,7.0,98,0.00,,,1.14,Wunderground v.1.15,2013-02-23 12:53:00,
2013-02-23 06:58:00,54.9,54.3,29.89,East,81,1.0,9.0,98,0.00,,,1.14,Wunderground v.1.15,2013-02-23 12:58:00,
2013-02-23 07:03:00,54.9,54.3,29.90,NE,41,1.0,4.0,98,0.00,,,1.14,Wunderground v.1.15,2013-02-23 13:03:00,
2013-02-23 07:08:00,54.9,54.1,29.90,ENE,71,4.0,8.0,97,0.00,,,1.14,Wunderground v.1.15,2013-02-23 13:08:00,
2013-02-23 07:13:00,55.0,54.2,29.90,NNE,20,1.0,5.0,97,0.00,,,1.14,Wunderground v.1.15,2013-02-23 13:13:00,
2013-02-23 07:18:00,54.9,54.1,29.90,ENE,68,4.0,5.0,97,0.00,,,1.14,Wunderground v.1.15,2013-02-23 13:18:00,
2013-02-23 07:23:00,54.9,54.1,29.90,East,100,0.0,3.0,97,0.00,,,1.14,Wunderground v.1.15,2013-02-23 13:23:00,
2013-02-23 07:28:00,54.9,54.1,29.90,NNE,23,3.0,7.0,97,0.00,,,1.14,Wunderground v.1.15,2013-02-23 13:28:00,
2013-02-23 07:33:00,54.9,54.1,29.90,NE,49,7.0,10.0,97,0.00,,,1.14,Wunderground v.1.15,2013-02-23 13:33:00,
2013-02-23 07:38:00,54.9,54.1,29.90,North,9,1.0,10.0,97,0.00,,,1.14,Wunderground v.1.15,2013-02-23 13:38:00,
2013-02-23 07:43:00,54.9,54.1,29.89,North,6,3.0,6.0,97,0.00,,,1.14,Wunderground v.1.15,2013-02-23 13:43:00,
2013-02-23 07:48:00,54.9,53.8,29.90,NW,316,2.0,7.0,96,0.00,,,1.14,Wunderground v.1.15,2013-02-23 13:48:00,
2013-02-23 07:53:00,55.1,54.0,29.90,NE,40,2.0,5.0,96,0.00,,,1.14,Wunderground v.1.15,2013-02-23 13:53:00,
2013-02-23 07:58:00,55.3,54.2,29.89,East,83,2.0,8.0,96,0.00,,,1.14,Wunderground v.1.15,2013-02-23 13:58:00,
2013-02-23 08:03:00,55.3,53.9,29.90,ENE,62,6.0,7.0,95,0.00,,,1.14,Wunderground v.1.15,2013-02-23 14:03:00,
2013-02-23 08:08:00,55.5,54.1,29.90,NNE,29,2.0,7.0,95,0.00,,,1.14,Wunderground v.1.15,2013-02-23 14:08:00,
2013-02-23 08:13:00,55.5,54.1,29.90,NE,47,9.0,9.0,95,0.00,,,1.14,Wunderground v.1.15,2013-02-23 14:13:00,
2013-02-23 08:18:00,55.7,54.3,29.90,NNW,346,2.0,9.0,95,0.00,,,1.14,Wunderground v.1.15,2013-02-23 14:18:00,
2013-02-23 08:23:00,55.8,54.4,29.90,NNW,330,5.0,6.0,95,0.00,,,1.14,Wunderground v.1.15,2013-02-23 14:23:00,
2013-02-23 08:28:00,55.8,54.1,29.91,NE,39,3.0,8.0,94,0.00,,,1.14,Wunderground v.1.15,2013-02-23 14:28:00,
2013-02-23 08:33:00,55.9,54.2,29.91,North,350,4.0,8.0,94,0.00,,,1.14,Wunderground v.1.15,2013-02-23 14:33:00,
2013-02-23 08:38:00,56.0,54.3,29.92,NE,37,1.0,11.0,94,0.00,,,1.14,Wunderground v.1.15,2013-02-23 14:38:00,
2013-02-23 08:43:00,56.1,54.4,29.92,NNE,33,1.0,6.0,94,0.00,,,1.14,Wunderground v.1.15,2013-02-23 14:43:00,
2013-02-23 08:48:00,56.1,54.4,29.92,NNW,346,1.0,8.0,94,0.00,,,1.14,Wunderground v.1.15,2013-02-23 14:48:00,
2013-02-23 08:53:00,56.2,54.5,29.92,NE,43,7.0,9.0,94,0.00,,,1.14,Wunderground v.1.15,2013-02-23 14:53:00,
2013-02-23 08:58:00,56.2,54.5,29.92,NE,40,3.0,9.0,94,0.00,,,1.14,Wunderground v.1.15,2013-02-23 14:58:00,
2013-02-23 09:03:00,56.2,54.5,29.92,NNW,328,6.0,9.0,94,0.00,,,1.14,Wunderground v.1.15,2013-02-23 15:03:00,
2013-02-23 09:09:00,56.3,54.6,29.91,NNE,32,3.0,9.0,94,0.00,,,1.14,Wunderground v.1.15,2013-02-23 15:09:00,
2013-02-23 09:14:00,56.5,54.8,29.91,North,5,1.0,6.0,94,0.00,,,1.14,Wunderground v.1.15,2013-02-23 15:14:00,
2013-02-23 09:19:00,56.8,55.1,29.90,ENE,65,2.0,8.0,94,0.00,,,1.14,Wunderground v.1.15,2013-02-23 15:19:00,
2013-02-23 09:23:00,57.2,55.2,29.90,NE,53,3.0,5.0,93,0.00,,,1.14,Wunderground v.1.15,2013-02-23 15:23:00,
2013-02-23 09:28:00,57.6,55.6,29.90,East,96,6.0,7.0,93,0.00,,,1.14,Wunderground v.1.15,2013-02-23 15:28:00,
2013-02-23 09:33:00,57.6,55.3,29.90,North,6,3.0,7.0,92,0.00,,,1.14,Wunderground v.1.15,2013-02-23 15:33:00,
2013-02-23 09:38:00,57.8,55.5,29.89,NNW,342,3.0,7.0,92,0.00,,,1.14,Wunderground v.1.15,2013-02-23 15:38:00,
2013-02-23 09:43:00,58.1,55.8,29.90,NNW,341,2.0,6.0,92,0.00,,,1.14,Wunderground v.1.15,2013-02-23 15:43:00,
2013-02-23 09:49:00,58.2,55.6,29.90,NNE,23,4.0,8.0,91,0.00,,,1.14,Wunderground v.1.15,2013-02-23 15:49:00,
2013-02-23 09:54:00,58.4,55.8,29.89,NNE,17,2.0,5.0,91,0.00,,,1.14,Wunderground v.1.15,2013-02-23 15:54:00,
2013-02-23 09:59:00,58.6,55.7,29.89,NNE,27,3.0,6.0,90,0.00,,,1.14,Wunderground v.1.15,2013-02-23 15:59:00,
2013-02-23 10:04:00,58.5,55.6,29.90,North,352,6.0,8.0,90,0.00,,,1.14,Wunderground v.1.15,2013-02-23 16:04:00,
2013-02-23 10:09:00,58.4,55.5,29.90,NNW,329,2.0,8.0,90,0.00,,,1.14,Wunderground v.1.15,2013-02-23 16:09:00,
2013-02-23 10:14:00,58.5,55.9,29.90,NNW,330,2.0,8.0,91,0.00,,,1.14,Wunderground v.1.15,2013-02-23 16:14:00,
2013-02-23 10:19:00,58.6,55.7,29.91,NNW,342,4.0,8.0,90,0.00,,,1.14,Wunderground v.1.15,2013-02-23 16:19:00,
2013-02-23 10:24:00,58.8,55.9,29.91,NNE,23,3.0,6.0,90,0.00,,,1.14,Wunderground v.1.15,2013-02-23 16:24:00,
2013-02-23 10:29:00,58.6,55.7,29.91,North,352,6.0,8.0,90,0.00,,,1.14,Wunderground v.1.15,2013-02-23 16:29:00,
2013-02-23 10:34:00,58.7,55.8,29.91,NNW,345,2.0,4.0,90,0.00,,,1.14,Wunderground v.1.15,2013-02-23 16:34:00,
2013-02-23 10:39:00,58.8,56.2,29.91,NNW,338,1.0,6.0,91,0.00,,,1.14,Wunderground v.1.15,2013-02-23 16:39:00,
2013-02-23 10:44:00,58.9,56.0,29.90,NNW,342,0.0,5.0,90,0.00,,,1.14,Wunderground v.1.15,2013-02-23 16:44:00,
2013-02-23 10:49:00,58.8,55.6,29.91,NE,40,3.0,6.0,89,0.00,,,1.14,Wunderground v.1.15,2013-02-23 16:49:00,
2013-02-23 10:54:00,58.8,55.9,29.91,North,11,2.0,4.0,90,0.00,,,1.14,Wunderground v.1.15,2013-02-23 16:54:00,
2013-02-23 10:59:00,58.8,55.9,29.90,NNE,17,3.0,5.0,90,0.00,,,1.14,Wunderground v.1.15,2013-02-23 16:59:00,
2013-02-23 11:04:00,59.0,56.1,29.90,NNW,345,1.0,5.0,90,0.00,,,1.14,Wunderground v.1.15,2013-02-23 17:04:00,
2013-02-23 11:09:00,59.1,56.2,29.90,North,352,1.0,5.0,90,0.00,,,1.14,Wunderground v.1.15,2013-02-23 17:09:00,
2013-02-23 11:14:00,59.1,55.9,29.90,NNW,328,2.0,5.0,89,0.00,,,1.14,Wunderground v.1.15,2013-02-23 17:14:00,
2013-02-23 11:19:00,59.1,55.9,29.90,NE,44,5.0,5.0,89,0.00,,,1.14,Wunderground v.1.15,2013-02-23 17:19:00,
2013-02-23 11:24:00,59.2,56.3,29.90,NE,43,2.0,4.0,90,0.00,,,1.14,Wunderground v.1.15,2013-02-23 17:24:00,
2013-02-23 11:29:00,59.1,55.9,29.90,NNW,333,4.0,6.0,89,0.00,,,1.14,Wunderground v.1.15,2013-02-23 17:29:00,
2013-02-23 11:34:00,59.1,55.9,29.90,NNW,340,2.0,6.0,89,0.00,,,1.14,Wunderground v.1.15,2013-02-23 17:34:00,
2013-02-23 11:39:00,59.0,56.1,29.90,NW,319,4.0,6.0,90,0.00,,,1.14,Wunderground v.1.15,2013-02-23 17:39:00,
2013-02-23 11:44:00,58.9,56.0,29.89,NNE,20,3.0,5.0,90,0.00,,,1.14,Wunderground v.1.15,2013-02-23 17:44:00,
2013-02-23 11:49:00,58.8,55.9,29.89,NNW,333,3.0,6.0,90,0.00,,,1.14,Wunderground v.1.15,2013-02-23 17:49:00,
2013-02-23 11:54:00,58.7,55.8,29.89,NNW,332,3.0,10.0,90,0.00,,,1.14,Wunderground v.1.15,2013-02-23 17:54:00,
2013-02-23 11:59:00,58.7,55.8,29.90,NW,323,2.0,10.0,90,0.00,,,1.14,Wunderground v.1.15,2013-02-23 17:59:00,
2013-02-23 12:04:00,58.7,55.8,29.90,North,6,1.0,4.0,90,0.00,,,1.14,Wunderground v.1.15,2013-02-23 18:04:00,
2013-02-23 12:09:00,58.7,55.8,29.89,North,356,2.0,4.0,90,0.00,,,1.14,Wunderground v.1.15,2013-02-23 18:09:00,
2013-02-23 12:14:00,58.6,55.7,29.89,NNW,342,2.0,4.0,90,0.00,,,1.14,Wunderground v.1.15,2013-02-23 18:14:00,
2013-02-23 12:20:00,58.5,55.9,29.90,NW,314,1.0,2.0,91,0.00,,,1.14,Wunderground v.1.15,2013-02-23 18:20:00,
2013-02-23 12:25:00,58.4,55.8,29.91,WNW,290,0.0,3.0,91,0.00,,,1.14,Wunderground v.1.15,2013-02-23 18:25:00,
2013-02-23 12:30:00,58.4,55.8,29.90,South,174,3.0,4.0,91,0.00,,,1.15,Wunderground v.1.15,2013-02-23 18:30:00,
2013-02-23 12:35:00,58.3,56.0,29.90,SSE,152,1.0,4.0,92,0.19,,,1.16,Wunderground v.1.15,2013-02-23 18:35:00,
2013-02-23 12:40:00,58.2,56.2,29.91,SSW,208,1.0,2.0,93,0.17,,,1.17,Wunderground v.1.15,2013-02-23 18:40:00,
2013-02-23 12:45:00,58.0,56.3,29.90,SSW,203,1.0,2.0,94,0.16,,,1.19,Wunderground v.1.15,2013-02-23 18:45:00,
2013-02-23 12:50:00,57.8,56.1,29.88,SE,131,4.0,4.0,94,0.13,,,1.20,Wunderground v.1.15,2013-02-23 18:50:00,
2013-02-23 12:55:00,57.5,55.8,29.86,ESE,107,10.0,10.0,94,0.10,,,1.21,Wunderground v.1.15,2013-02-23 18:55:00,
2013-02-23 13:00:00,57.3,55.9,29.86,SE,131,6.0,7.0,95,0.20,,,1.22,Wunderground v.1.15,2013-02-23 19:00:00,
2013-02-23 13:05:00,57.3,55.9,29.87,East,100,3.0,8.0,95,0.14,,,1.23,Wunderground v.1.15,2013-02-23 19:05:00,
2013-02-23 13:10:00,57.2,56.1,29.88,NNW,336,4.0,7.0,96,0.11,,,1.24,Wunderground v.1.15,2013-02-23 19:10:00,
2013-02-23 13:15:00,57.0,55.9,29.87,ESE,120,4.0,7.0,96,0.11,,,1.25,Wunderground v.1.15,2013-02-23 19:15:00,
2013-02-23 13:20:00,57.0,55.9,29.86,East,86,1.0,5.0,96,0.14,,,1.26,Wunderground v.1.15,2013-02-23 19:20:00,
2013-02-23 13:25:00,57.0,55.9,29.85,NNW,347,1.0,5.0,96,0.13,,,1.27,Wunderground v.1.15,2013-02-23 19:25:00,
2013-02-23 13:30:00,56.9,55.8,29.86,NNW,342,2.0,3.0,96,0.12,,,1.28,Wunderground v.1.15,2013-02-23 19:30:00,
2013-02-23 13:35:00,56.9,56.1,29.83,ENE,67,2.0,3.0,97,0.12,,,1.29,Wunderground v.1.15,2013-02-23 19:35:00,
2013-02-23 13:40:00,56.8,56.0,29.83,NE,44,2.0,3.0,97,0.11,,,1.30,Wunderground v.1.15,2013-02-23 19:40:00,
2013-02-23 13:45:00,56.8,56.0,29.86,WNW,286,5.0,5.0,97,0.07,,,1.30,Wunderground v.1.15,2013-02-23 19:45:00,
2013-02-23 13:50:00,56.9,56.3,29.84,North,358,2.0,4.0,98,0.06,,,1.31,Wunderground v.1.15,2013-02-23 19:50:00,
2013-02-23 13:55:00,56.8,56.2,29.83,NE,53,1.0,4.0,98,0.06,,,1.31,Wunderground v.1.15,2013-02-23 19:55:00,
2013-02-23 14:00:00,56.8,56.2,29.84,NW,319,1.0,2.0,98,0.04,,,1.31,Wunderground v.1.15,2013-02-23 20:00:00,
2013-02-23 14:05:00,56.8,56.2,29.82,ENE,77,1.0,4.0,98,0.00,,,1.31,Wunderground v.1.15,2013-02-23 20:05:00,
2013-02-23 14:10:00,56.8,56.2,29.81,ENE,59,2.0,2.0,98,0.00,,,1.31,Wunderground v.1.15,2013-02-23 20:10:00,
2013-02-23 14:15:00,56.8,56.2,29.81,NNW,338,0.0,3.0,98,0.00,,,1.31,Wunderground v.1.15,2013-02-23 20:15:00,
2013-02-23 14:20:00,56.9,56.3,29.81,NNW,347,3.0,4.0,98,0.00,,,1.31,Wunderground v.1.15,2013-02-23 20:20:00,
2013-02-23 14:25:00,57.0,56.4,29.80,NNE,30,5.0,6.0,98,0.00,,,1.31,Wunderground v.1.15,2013-02-23 20:25:00,
2013-02-23 14:30:00,57.0,56.4,29.80,North,351,3.0,4.0,98,0.00,,,1.31,Wunderground v.1.15,2013-02-23 20:30:00,
2013-02-23 14:35:00,57.2,56.6,29.81,NNW,334,3.0,7.0,98,0.00,,,1.31,Wunderground v.1.15,2013-02-23 20:35:00,
2013-02-23 14:40:00,57.3,56.7,29.80,NNW,330,3.0,8.0,98,0.00,,,1.31,Wunderground v.1.15,2013-02-23 20:40:00,
2013-02-23 14:45:00,57.7,57.1,29.80,NE,43,6.0,8.0,98,0.00,,,1.31,Wunderground v.1.15,2013-02-23 20:45:00,
2013-02-23 14:50:00,58.0,57.4,29.80,NE,34,3.0,4.0,98,0.00,,,1.31,Wunderground v.1.15,2013-02-23 20:50:00,
2013-02-23 14:55:00,58.3,57.7,29.80,NW,319,3.0,7.0,98,0.00,,,1.31,Wunderground v.1.15,2013-02-23 20:55:00,
2013-02-23 15:00:00,58.5,57.7,29.81,NNW,348,7.0,7.0,97,0.00,,,1.31,Wunderground v.1.15,2013-02-23 21:00:00,
2013-02-23 15:05:00,58.7,57.9,29.81,NW,320,7.0,8.0,97,0.00,,,1.31,Wunderground v.1.15,2013-02-23 21:05:00,
2013-02-23 15:10:00,58.8,57.7,29.81,NNW,342,4.0,5.0,96,0.00,,,1.31,Wunderground v.1.15,2013-02-23 21:10:00,
2013-02-23 15:15:00,58.9,57.8,29.81,NW,324,6.0,9.0,96,0.00,,,1.31,Wunderground v.1.15,2013-02-23 21:15:00,
2013-02-23 15:20:00,59.1,57.7,29.81,NNW,338,3.0,7.0,95,0.00,,,1.31,Wunderground v.1.15,2013-02-23 21:20:00,
2013-02-23 15:25:00,59.3,57.9,29.81,NW,316,7.0,9.0,95,0.00,,,1.31,Wunderground v.1.15,2013-02-23 21:25:00,
2013-02-23 15:30:00,59.3,57.9,29.81,North,352,3.0,4.0,95,0.00,,,1.31,Wunderground v.1.15,2013-02-23 21:30:00,
2013-02-23 15:35:00,59.4,58.0,29.82,NNW,328,5.0,8.0,95,0.00,,,1.31,Wunderground v.1.15,2013-02-23 21:35:00,
2013-02-23 15:40:00,59.4,57.7,29.82,NW,304,4.0,8.0,94,0.00,,,1.31,Wunderground v.1.15,2013-02-23 21:40:00,
2013-02-23 15:45:00,59.4,57.7,29.82,NNW,341,4.0,9.0,94,0.00,,,1.31,Wunderground v.1.15,2013-02-23 21:45:00,
2013-02-23 15:50:00,59.4,57.7,29.81,NW,309,2.0,5.0,94,0.00,,,1.31,Wunderground v.1.15,2013-02-23 21:50:00,
2013-02-23 15:55:00,59.4,57.7,29.82,NNW,339,2.0,5.0,94,0.00,,,1.31,Wunderground v.1.15,2013-02-23 21:55:00,
2013-02-23 16:01:00,59.5,57.5,29.83,WNW,302,2.0,4.0,93,0.00,,,1.31,Wunderground v.1.15,2013-02-23 22:01:00,
2013-02-23 16:06:00,59.5,57.5,29.83,WNW,302,4.0,5.0,93,0.00,,,1.31,Wunderground v.1.15,2013-02-23 22:06:00,
2013-02-23 16:11:00,59.5,57.5,29.84,WNW,300,4.0,5.0,93,0.00,,,1.31,Wunderground v.1.15,2013-02-23 22:11:00,
2013-02-23 16:16:00,59.6,57.6,29.84,NW,305,2.0,5.0,93,0.00,,,1.31,Wunderground v.1.15,2013-02-23 22:16:00,
2013-02-23 16:21:00,59.5,57.5,29.85,WNW,302,5.0,7.0,93,0.00,,,1.31,Wunderground v.1.15,2013-02-23 22:21:00,
2013-02-23 16:26:00,59.4,57.4,29.85,NNW,336,5.0,7.0,93,0.00,,,1.31,Wunderground v.1.15,2013-02-23 22:26:00,
2013-02-23 16:31:00,59.3,57.3,29.85,NNW,338,5.0,5.0,93,0.00,,,1.31,Wunderground v.1.15,2013-02-23 22:31:00,
2013-02-23 16:36:00,59.2,57.2,29.85,NNW,328,4.0,7.0,93,0.00,,,1.31,Wunderground v.1.15,2013-02-23 22:36:00,
2013-02-23 16:41:00,59.2,57.2,29.85,NNW,338,2.0,4.0,93,0.00,,,1.31,Wunderground v.1.15,2013-02-23 22:41:00,
2013-02-23 16:46:00,59.1,57.1,29.85,NNW,338,5.0,6.0,93,0.00,,,1.31,Wunderground v.1.15,2013-02-23 22:46:00,
2013-02-23 16:51:00,59.0,57.0,29.86,WNW,299,3.0,5.0,93,0.00,,,1.31,Wunderground v.1.15,2013-02-23 22:51:00,
2013-02-23 16:56:00,58.9,56.9,29.86,NW,305,3.0,6.0,93,0.00,,,1.31,Wunderground v.1.15,2013-02-23 22:56:00,
2013-02-23 17:01:00,58.9,56.9,29.86,WNW,301,3.0,4.0,93,0.00,,,1.31,Wunderground v.1.15,2013-02-23 23:01:00,
2013-02-23 17:06:00,58.8,56.8,29.87,NW,325,4.0,6.0,93,0.00,,,1.31,Wunderground v.1.15,2013-02-23 23:06:00,
2013-02-23 17:11:00,58.8,56.8,29.87,NW,321,2.0,4.0,93,0.00,,,1.31,Wunderground v.1.15,2013-02-23 23:11:00,
2013-02-23 17:16:00,58.7,56.7,29.87,NW,324,2.0,5.0,93,0.00,,,1.31,Wunderground v.1.15,2013-02-23 23:16:00,
2013-02-23 17:21:00,58.7,56.7,29.87,NW,319,5.0,5.0,93,0.00,,,1.31,Wunderground v.1.15,2013-02-23 23:21:00,
2013-02-23 17:26:00,58.6,56.6,29.86,North,6,3.0,5.0,93,0.00,,,1.31,Wunderground v.1.15,2013-02-23 23:26:00,
2013-02-23 17:31:00,58.6,56.6,29.86,NNW,330,1.0,3.0,93,0.00,,,1.31,Wunderground v.1.15,2013-02-23 23:31:00,
2013-02-23 17:36:00,58.4,56.4,29.86,NNW,328,1.0,4.0,93,0.00,,,1.31,Wunderground v.1.15,2013-02-23 23:36:00,
2013-02-23 17:41:00,58.4,56.4,29.86,North,358,2.0,5.0,93,0.00,,,1.31,Wunderground v.1.15,2013-02-23 23:41:00,
2013-02-23 17:46:00,58.3,56.3,29.87,NNW,342,4.0,5.0,93,0.00,,,1.31,Wunderground v.1.15,2013-02-23 23:46:00,
2013-02-23 17:51:00,58.3,56.3,29.87,NNW,330,4.0,4.0,93,0.00,,,1.31,Wunderground v.1.15,2013-02-23 23:51:00,
2013-02-23 17:56:00,58.2,56.2,29.87,NNW,328,2.0,6.0,93,0.00,,,1.31,Wunderground v.1.15,2013-02-23 23:56:00,
2013-02-23 18:01:00,58.1,56.1,29.88,NNW,328,4.0,8.0,93,0.00,,,1.31,Wunderground v.1.15,2013-02-24 00:01:00,
2013-02-23 18:06:00,58.0,56.3,29.88,NW,322,2.0,8.0,94,0.00,,,1.31,Wunderground v.1.15,2013-02-24 00:06:00,
2013-02-23 18:11:00,57.8,56.1,29.88,NNW,336,4.0,6.0,94,0.00,,,1.31,Wunderground v.1.15,2013-02-24 00:11:00,
2013-02-23 18:16:00,57.6,55.9,29.88,NNW,328,4.0,9.0,94,0.00,,,1.31,Wunderground v.1.15,2013-02-24 00:16:00,
2013-02-23 18:21:00,57.4,55.7,29.89,NNE,23,4.0,4.0,94,0.00,,,1.31,Wunderground v.1.15,2013-02-24 00:21:00,
2013-02-23 18:26:00,57.3,55.9,29.88,NW,304,2.0,5.0,95,0.00,,,1.31,Wunderground v.1.15,2013-02-24 00:26:00,
2013-02-23 18:31:00,57.3,55.9,29.88,NNW,344,3.0,5.0,95,0.00,,,1.31,Wunderground v.1.15,2013-02-24 00:31:00,
2013-02-23 18:36:00,57.2,55.8,29.88,NW,325,4.0,9.0,95,0.00,,,1.31,Wunderground v.1.15,2013-02-24 00:36:00,
2013-02-23 18:41:00,57.1,55.7,29.88,NNW,335,1.0,4.0,95,0.00,,,1.31,Wunderground v.1.15,2013-02-24 00:41:00,
2013-02-23 18:46:00,57.0,55.6,29.88,North,352,1.0,4.0,95,0.00,,,1.31,Wunderground v.1.15,2013-02-24 00:46:00,
2013-02-23 18:51:00,57.0,55.6,29.89,North,8,3.0,5.0,95,0.00,,,1.31,Wunderground v.1.15,2013-02-24 00:51:00,
2013-02-23 18:56:00,57.0,55.6,29.89,North,7,1.0,5.0,95,0.00,,,1.31,Wunderground v.1.15,2013-02-24 00:56:00,
2013-02-23 19:01:00,57.0,55.6,29.89,NW,312,2.0,5.0,95,0.00,,,1.31,Wunderground v.1.15,2013-02-24 01:01:00,
2013-02-23 19:06:00,57.0,55.6,29.89,NNW,347,2.0,5.0,95,0.00,,,1.31,Wunderground v.1.15,2013-02-24 01:06:00,
2013-02-23 19:11:00,57.1,55.7,29.89,NNE,23,4.0,4.0,95,0.00,,,1.31,Wunderground v.1.15,2013-02-24 01:11:00,
2013-02-23 19:16:00,57.1,55.7,29.89,North,11,3.0,4.0,95,0.00,,,1.31,Wunderground v.1.15,2013-02-24 01:16:00,
2013-02-23 19:21:00,57.1,55.4,29.90,NNW,345,3.0,4.0,94,0.00,,,1.31,Wunderground v.1.15,2013-02-24 01:21:00,
2013-02-23 19:26:00,57.1,55.4,29.90,NE,39,0.0,5.0,94,0.00,,,1.31,Wunderground v.1.15,2013-02-24 01:26:00,
2013-02-23 19:31:00,57.2,55.5,29.90,NE,43,0.0,2.0,94,0.00,,,1.31,Wunderground v.1.15,2013-02-24 01:31:00,
2013-02-23 19:36:00,57.2,55.5,29.90,North,350,3.0,4.0,94,0.00,,,1.31,Wunderground v.1.15,2013-02-24 01:36:00,
2013-02-23 19:41:00,57.2,55.2,29.90,ENE,57,1.0,3.0,93,0.00,,,1.31,Wunderground v.1.15,2013-02-24 01:41:00,
2013-02-23 19:46:00,57.3,55.3,29.89,ENE,58,3.0,4.0,93,0.00,,,1.31,Wunderground v.1.15,2013-02-24 01:46:00,
2013-02-23 19:51:00,57.4,55.4,29.90,NE,37,1.0,2.0,93,0.00,,,1.31,Wunderground v.1.15,2013-02-24 01:51:00,
2013-02-23 19:56:00,57.4,55.4,29.91,NNE,15,1.0,4.0,93,0.00,,,1.31,Wunderground v.1.15,2013-02-24 01:56:00,
2013-02-23 20:01:00,57.4,55.4,29.91,NNE,15,0.0,1.0,93,0.00,,,1.31,Wunderground v.1.15,2013-02-24 02:01:00,
2013-02-23 20:06:00,57.4,55.4,29.91,NNE,15,1.0,2.0,93,0.00,,,1.31,Wunderground v.1.15,2013-02-24 02:06:00,
2013-02-23 20:11:00,57.4,55.4,29.91,NNE,18,2.0,2.0,93,0.00,,,1.31,Wunderground v.1.15,2013-02-24 02:11:00,
2013-02-23 20:16:00,57.3,55.3,29.91,NNE,15,1.0,4.0,93,0.00,,,1.31,Wunderground v.1.15,2013-02-24 02:16:00,
2013-02-23 20:21:00,57.4,55.4,29.91,North,9,1.0,2.0,93,0.00,,,1.31,Wunderground v.1.15,2013-02-24 02:21:00,
2013-02-23 20:26:00,57.4,55.4,29.91,NW,314,1.0,3.0,93,0.00,,,1.31,Wunderground v.1.15,2013-02-24 02:26:00,
2013-02-23 20:31:00,57.4,55.4,29.91,NNW,334,0.0,1.0,93,0.00,,,1.31,Wunderground v.1.15,2013-02-24 02:31:00,
2013-02-23 20:36:00,57.4,55.4,29.91,NNE,15,0.0,2.0,93,0.00,,,1.31,Wunderground v.1.15,2013-02-24 02:36:00,
2013-02-23 20:41:00,57.4,55.4,29.91,North,11,1.0,2.0,93,0.00,,,1.31,Wunderground v.1.15,2013-02-24 02:41:00,
2013-02-23 20:46:00,57.4,55.4,29.92,North,7,2.0,2.0,93,0.00,,,1.31,Wunderground v.1.15,2013-02-24 02:46:00,
2013-02-23 20:51:00,57.4,55.4,29.92,NNW,343,0.0,1.0,93,0.00,,,1.31,Wunderground v.1.15,2013-02-24 02:51:00,
2013-02-23 20:56:00,57.4,55.4,29.92,North,354,2.0,4.0,93,0.00,,,1.31,Wunderground v.1.15,2013-02-24 02:56:00,
2013-02-23 21:01:00,57.4,55.4,29.92,NNW,333,1.0,3.0,93,0.00,,,1.31,Wunderground v.1.15,2013-02-24 03:01:00,
2013-02-23 21:06:00,57.4,55.1,29.92,North,11,2.0,4.0,92,0.00,,,1.31,Wunderground v.1.15,2013-02-24 03:06:00,
2013-02-23 21:11:00,57.5,55.2,29.93,North,5,2.0,2.0,92,0.00,,,1.31,Wunderground v.1.15,2013-02-24 03:11:00,
2013-02-23 21:16:00,57.4,55.1,29.93,NE,43,2.0,5.0,92,0.00,,,1.31,Wunderground v.1.15,2013-02-24 03:16:00,
2013-02-23 21:21:00,57.5,55.2,29.93,NNE,29,3.0,6.0,92,0.00,,,1.31,Wunderground v.1.15,2013-02-24 03:21:00,
2013-02-23 21:27:00,57.4,54.8,29.93,NNE,20,4.0,6.0,91,0.00,,,1.31,Wunderground v.1.15,2013-02-24 03:27:00,
2013-02-23 21:32:00,57.4,54.8,29.93,NW,325,1.0,4.0,91,0.00,,,1.31,Wunderground v.1.15,2013-02-24 03:32:00,
2013-02-23 21:37:00,57.4,54.8,29.93,North,350,2.0,4.0,91,0.00,,,1.31,Wunderground v.1.15,2013-02-24 03:37:00,
2013-02-23 21:42:00,57.3,54.7,29.94,NE,37,1.0,3.0,91,0.00,,,1.31,Wunderground v.1.15,2013-02-24 03:42:00,
2013-02-23 21:47:00,57.2,54.6,29.94,NNW,340,4.0,5.0,91,0.00,,,1.31,Wunderground v.1.15,2013-02-24 03:47:00,
2013-02-23 21:52:00,57.2,54.6,29.94,NNW,344,2.0,4.0,91,0.00,,,1.31,Wunderground v.1.15,2013-02-24 03:52:00,
2013-02-23 21:57:00,57.1,54.5,29.93,NNW,333,2.0,5.0,91,0.00,,,1.31,Wunderground v.1.15,2013-02-24 03:57:00,
2013-02-23 22:02:00,57.1,54.5,29.93,NNW,346,3.0,8.0,91,0.00,,,1.31,Wunderground v.1.15,2013-02-24 04:02:00,
2013-02-23 22:07:00,57.1,54.2,29.93,NNW,340,2.0,8.0,90,0.00,,,1.31,Wunderground v.1.15,2013-02-24 04:07:00,
2013-02-23 22:12:00,57.0,54.1,29.93,North,5,3.0,6.0,90,0.00,,,1.31,Wunderground v.1.15,2013-02-24 04:12:00,
2013-02-23 22:17:00,57.0,54.1,29.93,North,5,3.0,7.0,90,0.00,,,1.31,Wunderground v.1.15,2013-02-24 04:17:00,
2013-02-23 22:22:00,56.9,53.7,29.93,NNW,338,2.0,7.0,89,0.00,,,1.31,Wunderground v.1.15,2013-02-24 04:22:00,
2013-02-23 22:27:00,56.9,53.7,29.93,NNW,340,1.0,7.0,89,0.00,,,1.31,Wunderground v.1.15,2013-02-24 04:27:00,
2013-02-23 22:32:00,56.9,53.4,29.93,East,88,2.0,4.0,88,0.00,,,1.31,Wunderground v.1.15,2013-02-24 04:32:00,
2013-02-23 22:37:00,56.8,53.3,29.93,NNE,23,4.0,5.0,88,0.00,,,1.31,Wunderground v.1.15,2013-02-24 04:37:00,
2013-02-23 22:42:00,56.8,53.3,29.94,NNW,342,2.0,6.0,88,0.00,,,1.31,Wunderground v.1.15,2013-02-24 04:42:00,
2013-02-23 22:47:00,56.8,53.3,29.93,NNE,25,1.0,6.0,88,0.00,,,1.31,Wunderground v.1.15,2013-02-24 04:47:00,
2013-02-23 22:52:00,56.7,52.9,29.93,North,5,3.0,6.0,87,0.00,,,1.31,Wunderground v.1.15,2013-02-24 04:52:00,
2013-02-23 22:57:00,56.7,52.9,29.93,NE,55,2.0,6.0,87,0.00,,,1.31,Wunderground v.1.15,2013-02-24 04:57:00,
2013-02-23 23:00:00,56.7,52.9,29.93,NNE,29,5.0,6.0,87,0.00,,,1.31,Wunderground v.1.15,2013-02-24 05:00:00,
2013-02-23 23:05:00,56.6,52.8,29.93,NNE,20,3.0,6.0,87,0.00,,,1.31,Wunderground v.1.15,2013-02-24 05:05:00,
2013-02-23 23:10:00,56.6,52.8,29.93,NNE,32,3.0,3.0,87,0.00,,,1.31,Wunderground v.1.15,2013-02-24 05:10:00,
2013-02-23 23:15:00,56.6,52.5,29.93,NE,53,2.0,6.0,86,0.00,,,1.31,Wunderground v.1.15,2013-02-24 05:15:00,
2013-02-23 23:20:00,56.5,52.4,29.93,ENE,70,2.0,4.0,86,0.00,,,1.31,Wunderground v.1.15,2013-02-24 05:20:00,
2013-02-23 23:25:00,56.4,52.3,29.93,NE,53,1.0,5.0,86,0.00,,,1.31,Wunderground v.1.15,2013-02-24 05:25:00,
2013-02-23 23:30:00,56.3,52.2,29.93,NNE,16,1.0,2.0,86,0.00,,,1.31,Wunderground v.1.15,2013-02-24 05:30:00,
2013-02-23 23:35:00,56.1,52.0,29.93,NNW,342,2.0,4.0,86,0.00,,,1.31,Wunderground v.1.15,2013-02-24 05:35:00,
2013-02-23 23:40:00,55.8,51.7,29.93,North,11,2.0,2.0,86,0.00,,,1.31,Wunderground v.1.15,2013-02-24 05:40:00,
2013-02-23 23:45:00,55.6,51.8,29.93,NE,51,0.0,3.0,87,0.00,,,1.31,Wunderground v.1.15,2013-02-24 05:45:00,
2013-02-23 23:51:00,55.3,51.8,29.93,ENE,63,0.0,1.0,88,0.00,,,1.31,Wunderground v.1.15,2013-02-24 05:51:00,
2013-02-23 23:56:00,55.0,51.5,29.93,ENE,63,0.0,3.0,88,0.00,,,0.00,Wunderground v.1.15,2013-02-24 05:56:00,